フェアバンクス の空港の天気 - METARとTAF

フェアバンクス国際空港 ( PAFA / FAI ) - アメリカ アラスカ州フェアバンクス
飛行場実況気象(Metar)
観測時間06/17 10:53 AKDT (06/17 18:53 UTC)
風向・風速不定 2m/s
視程10km以上
天気現象
少しの雲 雲底高度 2130m
少しの雲 雲底高度 2740m
全天の8割程度の雲 雲底高度 6710m
気温19.4℃
湿度55%
気圧1002.1hPa
METARPAFA 171853Z VRB03KT 10SM FEW070 FEW090 BKN220 19/10 A2958 RMK AO2 SLP021 T01940100
過去の天気等 Google飛行場航空写真 Wunderground天気予報

過去48時間のMETAR

飛行場予報(TAF)
発表時間: 6/17 09:39 AKDT (6/17 17:39 UTC)
予報対象時間: 17日10時 AKDT ~ 18日16時 AKDT
風向・風速北東 2m/s
視程10km以上
全天の4割程度の雲 雲底高度 2130m
17日13時 AKDT から
風向・風速東北東 5m/s
視程10km以上
天気現象周辺で雷
全天の8割程度の積乱雲 雲底高度 1520m
17日22時 AKDT から
風向・風速北東 5m/s
視程10km以上
天気現象周辺でしゅう雨
全天の8割程度の雲 雲底高度 1520m
18日1時 AKDT から
風向・風速北 3m/s
視程10km以上
全天の4割程度の雲 雲底高度 1520m
全天の8割程度の雲 雲底高度 3050m
18日13時 AKDT から
風向・風速西南西 3m/s
視程10km以上
天気現象周辺で雷
全天の8割程度の積乱雲 雲底高度 1520m
PAFA 171739Z 1718/1824 04003KT P6SM SCT070
FM172100 06010KT P6SM VCTS BKN050CB
FM180600 04010KT P6SM VCSH BKN050
FM180900 01006KT P6SM SCT050 BKN100
FM182100 25005KT P6SM VCTS BKN050CB